createdAt,value
2023-03-25T00:01:34.411Z,99711.81
2023-03-25T00:04:04.559Z,99712.58
2023-03-25T00:06:35.981Z,99707.57
2023-03-25T00:09:07.527Z,99704.44
2023-03-25T00:11:37.830Z,99711.14
2023-03-25T00:14:06.537Z,99710.91
2023-03-25T00:16:41.886Z,99709.42
2023-03-25T00:19:10.053Z,99710.14
2023-03-25T00:21:40.076Z,99705.20
2023-03-25T00:24:08.259Z,99700.89
2023-03-25T00:26:42.770Z,99696.56
2023-03-25T00:29:11.048Z,99684.66
2023-03-25T00:31:40.554Z,99685.68
2023-03-25T00:34:09.340Z,99690.66
2023-03-25T00:36:38.949Z,99685.73
2023-03-25T00:39:08.575Z,99689.20
2023-03-25T00:41:37.301Z,99688.59
2023-03-25T00:44:06.351Z,99693.87
2023-03-25T00:46:34.543Z,99698.76
2023-03-25T00:49:04.456Z,99695.51
2023-03-25T00:51:36.193Z,99696.51
2023-03-25T00:54:23.780Z,99695.90
2023-03-25T00:56:53.610Z,99693.01
2023-03-25T00:59:22.121Z,99692.80
2023-03-25T01:01:53.447Z,99690.60
2023-03-25T01:04:22.131Z,99688.10
2023-03-25T01:06:52.245Z,99685.75
2023-03-25T01:09:21.438Z,99685.09
2023-03-25T01:11:50.924Z,99685.45
2023-03-25T01:14:21.126Z,99683.73
2023-03-25T01:16:50.402Z,99680.26
2023-03-25T01:19:18.772Z,99676.21
2023-03-25T01:21:48.380Z,99672.21
2023-03-25T01:24:16.865Z,99677.48
2023-03-25T01:26:47.084Z,99675.54
2023-03-25T01:29:17.632Z,99682.81
2023-03-25T01:31:46.243Z,99679.95
2023-03-25T01:34:14.988Z,99682.85
2023-03-25T01:36:46.683Z,99684.61
2023-03-25T01:39:19.434Z,99682.96
2023-03-25T01:41:50.555Z,99681.02
2023-03-25T01:44:19.459Z,99681.02
2023-03-25T01:46:49.558Z,99679.50
2023-03-25T01:49:30.359Z,99679.36
2023-03-25T01:52:02.645Z,99679.16
2023-03-25T01:54:30.910Z,99679.84
2023-03-25T01:56:59.036Z,99678.04
2023-03-25T01:59:28.471Z,99677.41
2023-03-25T02:02:02.309Z,99679.98
2023-03-25T02:04:39.332Z,99680.38
2023-03-25T02:07:08.844Z,99681.37
2023-03-25T02:09:38.826Z,99681.29
2023-03-25T02:12:09.047Z,99676.77
2023-03-25T02:14:39.367Z,99675.77
2023-03-25T02:17:18.879Z,99673.34
2023-03-25T02:20:19.465Z,99674.20
2023-03-25T02:23:23.123Z,99671.12
2023-03-25T02:26:16.894Z,99665.11
2023-03-25T02:28:53.054Z,99663.86
2023-03-25T02:31:48.841Z,99663.02
2023-03-25T02:34:38.596Z,99662.74
2023-03-25T02:37:38.376Z,99660.25
2023-03-25T02:40:11.977Z,99658.48
2023-03-25T02:42:45.063Z,99655.87
2023-03-25T02:45:45.340Z,99655.34
2023-03-25T02:48:18.175Z,99647.63
2023-03-25T02:50:48.914Z,99650.89
2023-03-25T02:53:23.023Z,99649.46
2023-03-25T02:55:52.000Z,99644.69
2023-03-25T02:58:21.727Z,99645.36
2023-03-25T03:00:51.060Z,99643.02
2023-03-25T03:03:21.771Z,99641.91
2023-03-25T03:05:51.140Z,99643.08
2023-03-25T03:08:27.537Z,99639.73
2023-03-25T03:11:07.079Z,99640.45
2023-03-25T03:14:27.579Z,99641.92
2023-03-25T03:17:11.042Z,99642.23
2023-03-25T03:19:41.746Z,99643.37
2023-03-25T03:22:14.436Z,99637.52
2023-03-25T03:24:52.790Z,99637.80
2023-03-25T03:27:34.245Z,99638.15
2023-03-25T03:30:10.893Z,99636.66
2023-03-25T03:33:01.325Z,99635.41
2023-03-25T03:36:03.372Z,99636.66
2023-03-25T03:38:35.766Z,99639.86
2023-03-25T03:41:11.695Z,99641.64
2023-03-25T03:43:49.189Z,99646.80
2023-03-25T03:46:24.020Z,99653.86
2023-03-25T03:48:54.865Z,99662.73
2023-03-25T03:51:38.058Z,99665.65
2023-03-25T03:54:26.839Z,99666.19
2023-03-25T03:57:14.468Z,99666.45
2023-03-25T03:59:43.053Z,99664.45
2023-03-25T04:02:24.535Z,99660.17
2023-03-25T04:04:54.182Z,99654.69
2023-03-25T04:07:39.104Z,99655.48
2023-03-25T04:10:19.173Z,99645.27
2023-03-25T04:12:52.268Z,99640.70
2023-03-25T04:15:23.302Z,99644.02
2023-03-25T04:17:53.110Z,99653.04
2023-03-25T04:20:24.140Z,99667.15
2023-03-25T04:22:52.627Z,99670.61
2023-03-25T04:25:25.744Z,99665.02
2023-03-25T04:27:59.182Z,99665.03
2023-03-25T04:30:28.384Z,99664.93
2023-03-25T04:32:57.386Z,99665.27
2023-03-25T04:35:28.992Z,99663.48
2023-03-25T04:37:57.967Z,99661.92
2023-03-25T04:40:26.604Z,99660.63
2023-03-25T04:42:56.990Z,99659.38
2023-03-25T04:45:25.869Z,99655.34
2023-03-25T04:47:56.332Z,99652.79
2023-03-25T04:50:28.368Z,99648.27
2023-03-25T04:53:02.685Z,99640.19
2023-03-25T04:55:34.856Z,99638.73
2023-03-25T04:58:03.231Z,99640.52
2023-03-25T05:00:34.069Z,99640.45
2023-03-25T05:03:02.887Z,99639.10
2023-03-25T05:05:31.540Z,99639.89
2023-03-25T05:08:01.659Z,99633.37
2023-03-25T05:10:30.758Z,99633.23
2023-03-25T05:13:04.048Z,99633.83
2023-03-25T05:32:46.036Z,99621.30
2023-03-25T05:35:14.297Z,99618.55
2023-03-25T05:37:44.059Z,99615.43
2023-03-25T05:40:15.233Z,99617.20
2023-03-25T05:42:46.913Z,99617.10
2023-03-25T05:45:16.665Z,99616.30
2023-03-25T05:47:46.249Z,99607.41
2023-03-25T05:50:17.480Z,99601.59
2023-03-25T05:52:49.581Z,99596.96
2023-03-25T05:55:20.801Z,99596.73
2023-03-25T05:57:50.003Z,99598.46
2023-03-25T06:00:19.877Z,99598.80
2023-03-25T06:02:49.117Z,99595.73
2023-03-25T06:05:18.018Z,99595.30
2023-03-25T06:07:47.627Z,99591.04
2023-03-25T06:10:17.429Z,99589.78
2023-03-25T06:12:47.090Z,99592.17
2023-03-25T06:15:18.325Z,99591.09
2023-03-25T06:17:52.195Z,99586.13
2023-03-25T06:20:20.456Z,99589.60
2023-03-25T06:22:50.918Z,99592.08
2023-03-25T06:25:20.957Z,99590.42
2023-03-25T06:27:50.108Z,99594.27
2023-03-25T06:30:22.282Z,99592.73
2023-03-25T06:33:11.015Z,99586.20
2023-03-25T06:35:45.392Z,99584.58
2023-03-25T06:38:14.235Z,99582.02
2023-03-25T06:41:02.686Z,99578.84
2023-03-25T06:43:34.558Z,99576.22
2023-03-25T06:46:25.814Z,99574.86
2023-03-25T06:49:21.610Z,99574.58
2023-03-25T06:51:50.897Z,99574.02
2023-03-25T06:54:26.235Z,99574.57
2023-03-25T06:56:54.742Z,99574.40
2023-03-25T06:59:23.703Z,99571.88
2023-03-25T07:01:52.239Z,99564.53
2023-03-25T07:04:20.696Z,99562.59
2023-03-25T07:06:57.882Z,99556.63
2023-03-25T07:09:27.365Z,99551.05
2023-03-25T07:11:56.054Z,99547.14
2023-03-25T07:14:29.923Z,99544.02
2023-03-25T07:16:58.248Z,99554.52
2023-03-25T07:19:32.964Z,99564.53
2023-03-25T07:22:02.679Z,99561.98
2023-03-25T07:24:32.797Z,99560.14
2023-03-25T07:27:01.226Z,99558.06
2023-03-25T07:29:30.557Z,99553.55
2023-03-25T07:31:58.964Z,99552.16
2023-03-25T07:34:27.437Z,99550.02
2023-03-25T07:36:56.431Z,99541.80
2023-03-25T07:39:25.740Z,99535.09
2023-03-25T07:41:55.529Z,99533.56
2023-03-25T07:44:43.737Z,99535.62
2023-03-25T07:47:13.705Z,99530.79
2023-03-25T07:49:42.276Z,99530.66
2023-03-25T07:52:10.565Z,99528.89
2023-03-25T07:54:39.254Z,99525.93
2023-03-25T07:57:07.583Z,99522.45
2023-03-25T07:59:38.161Z,99520.73
2023-03-25T08:02:06.878Z,99518.93
2023-03-25T08:04:35.434Z,99521.02
2023-03-25T08:07:04.761Z,99521.45
2023-03-25T08:09:33.832Z,99518.36
2023-03-25T08:12:02.343Z,99512.88
2023-03-25T08:14:31.714Z,99506.92
2023-03-25T08:17:00.766Z,99502.60
2023-03-25T08:19:34.072Z,99497.63
2023-03-25T08:22:05.654Z,99498.00
2023-03-25T08:24:34.447Z,99487.65
2023-03-25T08:27:15.238Z,99486.35
2023-03-25T08:29:47.311Z,99485.20
2023-03-25T08:32:15.560Z,99481.95
2023-03-25T08:34:43.729Z,99473.95
2023-03-25T08:37:14.464Z,99466.02
2023-03-25T08:39:45.300Z,99468.08
2023-03-25T08:42:13.898Z,99462.08
2023-03-25T08:44:42.106Z,99451.85
2023-03-25T08:47:11.346Z,99446.02
2023-03-25T08:49:41.691Z,99439.77
2023-03-25T08:52:11.503Z,99441.27
2023-03-25T08:54:40.390Z,99443.55
2023-03-25T08:57:09.456Z,99445.80
2023-03-25T08:59:38.095Z,99441.67
2023-03-25T09:02:06.541Z,99440.21
2023-03-25T09:04:41.000Z,99432.14
2023-03-25T09:07:12.526Z,99427.84
2023-03-25T09:09:41.469Z,99427.02
2023-03-25T09:12:13.388Z,99429.88
2023-03-25T09:14:41.972Z,99432.29
2023-03-25T09:17:11.117Z,99432.43
2023-03-25T09:19:41.121Z,99439.78
2023-03-25T09:22:09.363Z,99436.16
2023-03-25T09:24:37.945Z,99437.08
2023-03-25T09:27:07.040Z,99439.13
2023-03-25T09:29:35.312Z,99436.23
2023-03-25T09:32:18.857Z,99434.98
2023-03-25T09:34:48.579Z,99431.73
2023-03-25T09:37:16.835Z,99431.88
2023-03-25T09:39:46.217Z,99434.35
2023-03-25T09:42:25.679Z,99430.65
2023-03-25T09:45:12.055Z,99432.13
2023-03-25T09:47:52.372Z,99431.27
2023-03-25T09:50:20.632Z,99432.58
2023-03-25T09:53:02.053Z,99429.27
2023-03-25T09:55:33.143Z,99435.13
2023-03-25T09:58:23.557Z,99435.30
2023-03-25T10:01:05.788Z,99429.92
2023-03-25T10:03:56.890Z,99420.45
2023-03-25T10:06:27.338Z,99416.70
2023-03-25T10:09:12.500Z,99409.09
2023-03-25T10:12:19.286Z,99401.02
2023-03-25T10:14:51.510Z,99391.85
2023-03-25T10:17:40.560Z,99384.14
2023-03-25T10:20:18.903Z,99386.14
2023-03-25T10:23:17.657Z,99388.56
2023-03-25T10:25:46.319Z,99389.47
2023-03-25T10:28:26.576Z,99396.81
2023-03-25T10:30:55.067Z,99398.45
2023-03-25T10:33:41.713Z,99397.35
2023-03-25T10:36:18.192Z,99393.65
2023-03-25T10:38:47.390Z,99390.46
2023-03-25T10:41:37.243Z,99381.21
2023-03-25T10:44:10.337Z,99374.42
2023-03-25T10:47:06.490Z,99376.33
2023-03-25T10:49:37.310Z,99372.43
2023-03-25T10:52:05.821Z,99371.36
2023-03-25T10:54:39.823Z,99368.62
2023-03-25T10:57:17.044Z,99360.30
2023-03-25T11:00:16.843Z,99361.36
2023-03-25T11:02:45.819Z,99353.49
2023-03-25T11:05:18.926Z,99349.45
2023-03-25T11:07:58.902Z,99351.07
2023-03-25T11:10:32.673Z,99346.71
2023-03-25T11:13:07.078Z,99335.63
2023-03-25T11:15:36.407Z,99333.17
2023-03-25T11:18:13.973Z,99335.23
2023-03-25T11:20:56.135Z,99330.96
2023-03-25T11:23:57.326Z,99329.51
2023-03-25T11:26:30.519Z,99318.48
2023-03-25T11:29:04.499Z,99314.52
2023-03-25T11:31:36.797Z,99322.56
2023-03-25T11:34:10.861Z,99326.92
2023-03-25T11:36:56.089Z,99324.15
2023-03-25T11:39:33.477Z,99327.86
2023-03-25T11:42:10.671Z,99335.28
2023-03-25T11:44:39.215Z,99333.77
2023-03-25T11:47:08.459Z,99333.70
2023-03-25T11:49:40.231Z,99333.73
2023-03-25T11:52:10.014Z,99330.77
2023-03-25T11:54:39.315Z,99329.16
2023-03-25T11:57:12.949Z,99330.71
2023-03-25T11:59:48.862Z,99334.59
2023-03-25T12:02:29.197Z,99336.88
2023-03-25T12:04:57.839Z,99337.56
2023-03-25T12:07:27.367Z,99335.77
2023-03-25T12:09:58.084Z,99330.17
2023-03-25T12:12:41.455Z,99326.34
2023-03-25T12:15:27.720Z,99320.39
2023-03-25T12:18:06.833Z,99325.91
2023-03-25T12:21:08.906Z,99325.55
2023-03-25T12:23:46.326Z,99322.05
2023-03-25T12:26:19.225Z,99321.20
2023-03-25T12:29:01.287Z,99317.80
2023-03-25T12:31:40.477Z,99314.80
2023-03-25T12:34:38.934Z,99318.88
2023-03-25T12:37:28.107Z,99319.90
2023-03-25T12:40:22.094Z,99319.53
2023-03-25T12:42:57.487Z,99315.65
2023-03-25T12:45:57.958Z,99317.24
2023-03-25T12:48:34.434Z,99314.48
2023-03-25T12:51:17.980Z,99311.33
2023-03-25T12:54:08.967Z,99308.07
2023-03-25T12:56:37.107Z,99306.21
2023-03-25T12:59:26.313Z,99306.59
2023-03-25T13:01:57.430Z,99307.55
2023-03-25T13:04:57.267Z,99304.42
2023-03-25T13:07:28.959Z,99301.24
2023-03-25T13:10:05.765Z,99293.30
2023-03-25T13:12:54.279Z,99290.77
2023-03-25T13:15:37.598Z,99281.44
2023-03-25T13:18:09.005Z,99279.29
2023-03-25T13:20:40.339Z,99277.95
2023-03-25T13:23:11.223Z,99279.92
2023-03-25T13:25:46.719Z,99277.98
2023-03-25T13:28:18.068Z,99276.80
2023-03-25T13:30:47.273Z,99273.02
2023-03-25T13:33:19.535Z,99272.42
2023-03-25T13:35:57.677Z,99275.04
2023-03-25T13:38:31.058Z,99269.38
2023-03-25T13:41:18.392Z,99263.37
2023-03-25T13:44:24.405Z,99252.19
2023-03-25T13:46:58.961Z,99249.88
2023-03-25T13:49:35.579Z,99250.98
2023-03-25T13:52:04.207Z,99246.77
2023-03-25T13:54:34.977Z,99248.48
2023-03-25T13:57:13.811Z,99242.83
2023-03-25T13:59:57.000Z,99244.24
2023-03-25T14:02:44.181Z,99238.31
2023-03-25T14:05:24.708Z,99234.91
2023-03-25T14:08:49.069Z,99236.20
2023-03-25T14:11:26.013Z,99238.91
2023-03-25T14:14:01.783Z,99236.98
2023-03-25T14:16:34.118Z,99228.55
2023-03-25T14:19:18.340Z,99221.19
2023-03-25T14:21:50.113Z,99218.38
2023-03-25T14:24:27.173Z,99214.55
2023-03-25T14:27:01.100Z,99213.52
2023-03-25T14:29:56.902Z,99212.59
2023-03-25T14:32:32.600Z,99218.31
2023-03-25T14:35:35.662Z,99213.46
2023-03-25T14:38:10.080Z,99210.08
2023-03-25T14:40:50.693Z,99204.38
2023-03-25T14:43:40.720Z,99202.66
2023-03-25T14:46:13.234Z,99200.58
2023-03-25T14:48:52.712Z,99194.72
2023-03-25T14:51:27.550Z,99188.73
2023-03-25T14:54:29.900Z,99185.21
2023-03-25T14:57:07.915Z,99181.23
2023-03-25T14:59:39.943Z,99178.43
2023-03-25T15:02:17.118Z,99174.36
2023-03-25T15:04:45.329Z,99175.92
2023-03-25T15:07:18.070Z,99170.19
2023-03-25T15:09:53.886Z,99170.67
2023-03-25T15:12:24.238Z,99174.70
2023-03-25T15:14:57.386Z,99173.39
2023-03-25T15:17:46.238Z,99176.40
2023-03-25T15:20:24.500Z,99176.37
2023-03-25T15:23:19.746Z,99174.31
2023-03-25T15:25:52.621Z,99168.49
2023-03-25T15:28:42.780Z,99168.74
2023-03-25T15:31:40.493Z,99164.61
2023-03-25T15:34:46.203Z,99161.17
2023-03-25T15:37:46.957Z,99154.10
2023-03-25T15:40:21.923Z,99148.55
2023-03-25T15:43:15.454Z,99145.30
2023-03-25T15:46:20.796Z,99141.06
2023-03-25T15:49:07.889Z,99136.13
2023-03-25T15:51:42.227Z,99129.20
2023-03-25T15:54:36.728Z,99129.81
2023-03-25T15:57:27.013Z,99129.91
2023-03-25T16:00:17.049Z,99129.29
2023-03-25T16:02:59.573Z,99125.77
2023-03-25T16:05:36.695Z,99127.13
2023-03-25T16:08:11.683Z,99129.45
2023-03-25T16:10:41.648Z,99131.59
2023-03-25T16:13:16.901Z,99131.97
2023-03-25T16:15:45.780Z,99128.27
2023-03-25T16:18:15.014Z,99125.11
2023-03-25T16:20:43.461Z,99121.83
2023-03-25T16:23:20.643Z,99122.73
2023-03-25T16:25:49.618Z,99125.23
2023-03-25T16:28:27.783Z,99128.71
2023-03-25T16:30:56.909Z,99130.33
2023-03-25T16:33:30.032Z,99132.55
2023-03-25T16:36:00.432Z,99134.41
2023-03-25T16:38:29.031Z,99138.16
2023-03-25T16:41:24.076Z,99136.94
2023-03-25T16:43:53.529Z,99137.77
2023-03-25T16:46:21.655Z,99137.31
2023-03-25T16:48:52.479Z,99132.92
2023-03-25T16:51:29.187Z,99132.43
2023-03-25T16:53:59.675Z,99131.61
2023-03-25T16:56:32.684Z,99127.77
2023-03-25T16:59:04.761Z,99121.75
2023-03-25T17:01:42.669Z,99121.68
2023-03-25T17:04:11.794Z,99121.65
2023-03-25T17:06:52.906Z,99122.84
2023-03-25T17:09:24.716Z,99113.30
2023-03-25T17:11:56.759Z,99106.98
2023-03-25T17:14:33.693Z,99105.63
2023-03-25T17:17:22.162Z,99107.39
2023-03-25T17:19:51.662Z,99107.89
2023-03-25T17:22:36.415Z,99109.60
2023-03-25T17:25:28.323Z,99114.48
2023-03-25T17:28:00.979Z,99116.65
2023-03-25T17:30:29.186Z,99117.71
2023-03-25T17:33:10.458Z,99118.21
2023-03-25T17:35:40.093Z,99124.86
2023-03-25T17:50:57.022Z,99129.61
2023-03-25T17:53:24.761Z,99119.46
2023-03-25T18:12:24.817Z,99098.69
2023-03-25T18:14:53.808Z,99087.36
2023-03-25T18:17:22.807Z,99088.23
2023-03-25T18:19:56.701Z,99084.84
2023-03-25T18:22:25.178Z,99078.61
2023-03-25T18:24:53.646Z,99080.02
2023-03-25T18:27:27.821Z,99083.63
2023-03-25T18:30:15.833Z,99087.28
2023-03-25T18:32:44.377Z,99089.10
2023-03-25T18:35:12.584Z,99084.43
2023-03-25T18:37:41.885Z,99087.54
2023-03-25T18:40:23.459Z,99089.93
2023-03-25T18:42:53.201Z,99087.55
2023-03-25T18:45:22.715Z,99091.56
2023-03-25T18:47:51.413Z,99097.60
2023-03-25T18:50:31.515Z,99098.12
2023-03-25T18:53:01.819Z,99094.14
2023-03-25T18:55:31.691Z,99093.81
2023-03-25T18:58:00.064Z,99093.80
2023-03-25T19:00:38.710Z,99088.52
2023-03-25T19:03:07.112Z,99083.83
2023-03-25T19:05:35.590Z,99081.83
2023-03-25T19:08:05.917Z,99072.98
2023-03-25T19:10:34.952Z,99070.02
2023-03-25T19:13:08.528Z,99063.82
2023-03-25T19:15:38.530Z,99066.66
2023-03-25T19:18:06.849Z,99066.92
2023-03-25T19:20:41.408Z,99066.90
2023-03-25T19:23:10.652Z,99065.08
2023-03-25T19:25:40.648Z,99063.39
2023-03-25T19:28:09.577Z,99057.83
2023-03-25T19:30:38.561Z,99056.48
2023-03-25T19:33:07.283Z,99055.95
2023-03-25T19:35:37.342Z,99055.13
2023-03-25T19:38:06.319Z,99053.74
2023-03-25T19:40:40.897Z,99052.84
2023-03-25T19:43:09.697Z,99050.60
2023-03-25T19:45:37.971Z,99052.35
2023-03-25T19:48:06.525Z,99049.27
2023-03-25T19:50:35.443Z,99051.77
2023-03-25T19:53:06.789Z,99055.30
2023-03-25T19:55:34.976Z,99056.10
2023-03-25T19:58:04.176Z,99056.39
2023-03-25T20:00:36.430Z,99058.27
2023-03-25T20:03:06.557Z,99060.92
2023-03-25T20:05:36.396Z,99055.05
2023-03-25T20:08:05.254Z,99055.52
2023-03-25T20:10:34.463Z,99055.70
2023-03-25T20:13:02.936Z,99056.05
2023-03-25T20:15:31.645Z,99049.48
2023-03-25T20:18:00.384Z,99046.52
2023-03-25T20:20:29.100Z,99041.09
2023-03-25T20:22:57.388Z,99039.42
2023-03-25T20:25:25.660Z,99035.44
2023-03-25T20:27:56.085Z,99033.11
2023-03-25T20:30:25.184Z,99029.85
2023-03-25T20:32:53.401Z,99032.36
2023-03-25T20:35:21.754Z,99025.44
2023-03-25T20:37:52.277Z,99023.59
2023-03-25T20:40:23.529Z,99024.89
2023-03-25T20:43:00.850Z,99019.48
2023-03-25T20:45:30.532Z,99017.71
2023-03-25T20:47:59.444Z,99019.34
2023-03-25T20:50:27.882Z,99012.33
2023-03-25T20:52:56.482Z,99010.48
2023-03-25T20:55:24.748Z,99007.06
2023-03-25T20:57:53.324Z,99007.53
2023-03-25T21:00:21.908Z,99006.86
2023-03-25T21:02:50.963Z,99005.58
2023-03-25T21:05:19.384Z,99004.77
2023-03-25T21:07:48.481Z,99002.95
2023-03-25T21:10:16.965Z,99002.63
2023-03-25T21:12:53.636Z,99002.20
2023-03-25T21:15:22.935Z,98996.06
2023-03-25T21:17:51.110Z,98992.29
2023-03-25T21:20:29.014Z,98990.20
2023-03-25T21:22:59.267Z,98988.23
2023-03-25T21:25:35.605Z,98987.25
2023-03-25T21:28:04.594Z,98980.80
2023-03-25T21:30:32.878Z,98975.72
2023-03-25T21:33:01.576Z,98979.77
2023-03-25T21:35:30.050Z,98976.89
2023-03-25T21:38:01.094Z,98970.84
2023-03-25T21:40:39.908Z,98970.71
2023-03-25T21:43:08.604Z,98972.23
2023-03-25T21:45:37.696Z,98964.52
2023-03-25T21:48:09.115Z,98961.93
2023-03-25T21:50:39.957Z,98966.27
2023-03-25T21:53:13.385Z,98968.92
2023-03-25T21:55:49.855Z,98963.88
2023-03-25T21:58:18.850Z,98961.04
2023-03-25T22:00:47.007Z,98961.05
2023-03-25T22:03:18.972Z,98958.56
2023-03-25T22:05:47.450Z,98952.30
2023-03-25T22:08:19.720Z,98947.81
2023-03-25T22:10:49.227Z,98943.36
2023-03-25T22:13:17.558Z,98944.22
2023-03-25T22:15:46.713Z,98948.47
2023-03-25T22:18:15.594Z,98951.04
2023-03-25T22:20:44.434Z,98947.74
2023-03-25T22:23:14.300Z,98945.70
2023-03-25T22:25:44.314Z,98949.42
2023-03-25T22:28:12.292Z,98945.77
2023-03-25T22:30:40.906Z,98943.88
2023-03-25T22:33:09.675Z,98950.04
2023-03-25T22:35:38.779Z,98952.69
2023-03-25T22:38:07.240Z,98949.43
2023-03-25T22:40:35.715Z,98948.48
2023-03-25T22:43:03.832Z,98944.27
2023-03-25T22:45:31.956Z,98941.91
2023-03-25T22:48:01.143Z,98943.92
2023-03-25T22:50:31.611Z,98942.11
2023-03-25T22:53:00.579Z,98946.84
2023-03-25T22:55:28.760Z,98949.15
2023-03-25T22:57:56.880Z,98944.29
2023-03-25T23:00:26.384Z,98939.69
2023-03-25T23:02:54.798Z,98946.77
2023-03-25T23:05:23.609Z,98953.35
2023-03-25T23:07:51.784Z,98949.02
2023-03-25T23:10:20.066Z,98955.99
2023-03-25T23:12:50.183Z,98953.70
2023-03-25T23:15:19.613Z,98949.29
2023-03-25T23:17:49.352Z,98946.55
2023-03-25T23:20:18.091Z,98946.67
2023-03-25T23:22:50.743Z,98943.52
2023-03-25T23:25:19.471Z,98941.77
2023-03-25T23:27:47.566Z,98942.50
2023-03-25T23:30:16.651Z,98943.67
2023-03-25T23:32:44.875Z,98950.02
2023-03-25T23:35:13.081Z,98947.05
2023-03-25T23:37:41.664Z,98944.09
2023-03-25T23:40:11.380Z,98942.39
2023-03-25T23:42:40.364Z,98936.02
2023-03-25T23:45:09.714Z,98933.86
2023-03-25T23:47:38.486Z,98931.20
2023-03-25T23:50:07.654Z,98926.51
2023-03-25T23:52:35.928Z,98921.64
2023-03-25T23:55:04.612Z,98921.44
2023-03-25T23:57:33.100Z,98929.11
